Latest Coastal Weather Observations for Rosslyn Bay Harbour

IDQ60701

Issued at 9:02 am EST Sunday 26 June 2016 (issued every 10 minutes, with the page automatically refreshed every 10 minutes)

About coastal observations | Map of coastal stations | Coastal observations for QLD | Marine services | Other Formats
Station Details ID: 033208 Name: ROSSLYN BAY NTC AWS Lat: -23.16 Lon: 150.79 Height: 0.0 m
Data from the previous 72 hours. | See also: Recent months for locations in Queensland
Date/Time
EST
Temp
°C
Wind Pressure Rain since
9am
mm
Weather Cloud Vis
km
Sea
Height
m
Swell
Dir  Spd
kts
Gust
kts
hPa Trend Height
m
Period
s
Dir
26/09:00am 14.1 S 6 9 1020.1 - - - - - - - - -
26/08:30am 13.1 SSW 6 9 1020.0 - - - - - - - - -
26/08:00am 12.1 SSW 4 7 1019.7 - - - - - - - - -
26/07:30am 11.2 S 4 7 1019.6 - - - - - - - - -
26/07:00am 10.7 S 3 5 1019.2 - - - - - - - - -
26/06:30am 10.9 SSW 4 6 1019.3 - - - - - - - - -
26/06:00am 10.7 SSW 7 12 1019.1 - - - - - - - - -
26/05:30am 10.8 SSW 7 10 1018.9 - - - - - - - - -
26/05:00am 10.8 SSW 7 10 1018.4 - - - - - - - - -
26/04:30am 10.9 SSW 7 10 1018.1 - - - - - - - - -
26/04:00am 11.2 SSW 6 8 1018.0 - - - - - - - - -
26/03:30am 11.7 SSW 7 10 1017.8 - - - - - - - - -
26/03:00am 11.9 SSW 8 12 1018.0 - - - - - - - - -
26/02:30am 12.2 SSW 5 8 1018.0 - - - - - - - - -
26/02:00am 13.1 S 3 6 1017.7 - - - - - - - - -
26/01:30am 13.7 SSW 2 4 1017.7 - - - - - - - - -
26/01:00am 13.7 SSW 3 5 1018.1 - - - - - - - - -
26/12:30am 13.5 S 3 5 1018.2 - - - - - - - - -
26/12:00am 13.5 S 4 7 1018.7 - - - - - - - - -
 
Date/Time
EST
Temp
°C
Wind Pressure Rain since
9am
mm
Weather Cloud Vis
km
Sea
Height
m
Swell
Dir  Spd
kts
Gust
kts
hPa Trend Height
m
Period
s
Dir
25/11:30pm 14.3 S 5 7 1019.1 - - - - - - - - -
25/11:00pm 14.2 WSW 2 3 1019.4 - - - - - - - - -
25/10:30pm 14.7 W 2 2 1019.3 - - - - - - - - -
25/10:00pm 14.9 SSW 2 3 1019.2 - - - - - - - - -
25/09:30pm 16.3 S 2 3 1018.9 - - - - - - - - -
25/09:00pm 15.3 SW 1 2 1018.7 - - - - - - - - -
25/08:30pm 15.2 WSW 2 3 1018.7 - - - - - - - - -
25/08:00pm 16.8 S 3 4 1018.8 - - - - - - - - -
25/07:30pm 17.0 S 3 4 1018.6 - - - - - - - - -
25/07:00pm 17.2 S 1 4 1018.2 - - - - - - - - -
25/06:30pm 17.6 SSW 1 3 1017.8 - - - - - - - - -
25/06:00pm 18.9 N 2 2 1017.5 - - - - - - - - -
25/05:30pm 19.1 NNE 2 4 1017.5 - - - - - - - - -
25/05:00pm 19.3 N 3 5 1017.5 - - - - - - - - -
25/04:30pm 19.9 NNE 2 3 1017.2 - - - - - - - - -
25/04:00pm 19.3 NE 2 4 1016.8 - - - - - - - - -
25/03:30pm 18.8 S 2 5 1016.6 - - - - - - - - -
25/03:00pm 18.4 S 4 7 1016.3 - - - - - - - - -
25/02:30pm 18.0 S 6 9 1016.6 - - - - - - - - -
25/02:00pm 17.9 S 5 10 1017.0 - - - - - - - - -
25/01:30pm 17.4 S 8 12 1017.3 - - - - - - - - -
25/01:00pm 17.6 S 7 11 1017.7 - - - - - - - - -
25/12:30pm 17.8 SSE 6 11 1018.2 - - - - - - - - -
25/12:00pm 18.0 SW 5 10 1018.7 - - - - - - - - -
25/11:30am 17.5 SSW 6 11 1019.2 - - - - - - - - -
25/11:00am - S 3 7 1019.6 - - - - - - - - -
25/10:30am - SSW 6 10 1019.9 - - - - - - - - -
25/10:00am - SSW 5 9 1020.1 - - - - - - - - -
25/09:30am - SSW 8 13 1020.2 - - - - - - - - -
25/09:00am - SSW 12 17 1019.9 - - - - - - - - -
25/08:30am - SSW 8 12 1019.6 - - - - - - - - -
25/08:00am - SSW 6 11 1019.6 - - - - - - - - -
25/07:30am - SSW 8 13 1019.1 - - - - - - - - -
25/07:00am - SSW 4 7 1018.9 - - - - - - - - -
25/06:30am - SSW 3 6 1018.6 - - - - - - - - -
25/06:00am - S 3 6 1018.3 - - - - - - - - -
25/05:30am - SSE 2 6 1017.9 - - - - - - - - -
25/05:00am - SSW 4 9 1017.4 - - - - - - - - -
25/04:30am - SSW 6 11 1016.9 - - - - - - - - -
25/04:00am - SSW 11 16 1016.5 - - - - - - - - -
25/03:30am - SSW 10 15 1016.3 - - - - - - - - -
25/03:00am - SSW 10 16 1016.1 - - - - - - - - -
25/02:30am - SSW 9 17 1016.2 - - - - - - - - -
25/02:00am - SSW 9 13 1016.1 - - - - - - - - -
25/01:30am - S 6 10 1016.1 - - - - - - - - -
25/01:00am - SSW 7 9 1016.1 - - - - - - - - -
25/12:30am - SSW 6 9 1015.9 - - - - - - - - -
25/12:00am - SW 4 5 1015.4 - - - - - - - - -
 
Date/Time
EST
Temp
°C
Wind Pressure Rain since
9am
mm
Weather Cloud Vis
km
Sea
Height
m
Swell
Dir  Spd
kts
Gust
kts
hPa Trend Height
m
Period
s
Dir
24/11:30pm - SW 3 5 1015.3 - - - - - - - - -
24/11:00pm - SW 3 5 1015.3 - - - - - - - - -
24/10:30pm - SSW 2 4 1015.4 - - - - - - - - -
24/10:00pm - WSW 1 2 1015.3 - - - - - - - - -
24/09:30pm - WSW 2 4 1015.4 - - - - - - - - -
24/09:00pm - SSW 4 5 1015.2 - - - - - - - - -
24/08:30pm - SSW 4 6 1015.1 - - - - - - - - -
24/08:00pm - S 3 5 1014.8 - - - - - - - - -
24/07:30pm - N 1 1 1014.5 - - - - - - - - -
24/07:00pm - SSW 3 4 1014.2 - - - - - - - - -
24/06:30pm - SSW 4 5 1013.7 - - - - - - - - -
24/06:00pm - SSW 3 4 1013.3 - - - - - - - - -
24/05:30pm - SSW 4 6 1012.8 - - - - - - - - -
24/05:00pm - SW 3 5 1012.7 - - - - - - - - -
24/04:30pm - SSW 6 8 1012.5 - - - - - - - - -
24/04:00pm - SSW 10 13 1012.0 - - - - - - - - -
24/03:30pm - WSW 7 12 1011.6 - - - - - - - - -
24/03:00pm - SW 8 13 1011.4 - - - - - - - - -
24/02:30pm - SW 8 15 1011.6 - - - - - - - - -
24/02:00pm - SW 6 11 1011.5 - - - - - - - - -
24/01:30pm - SW 8 13 1011.6 - - - - - - - - -
24/01:00pm - W 5 10 1011.9 - - - - - - - - -
24/12:30pm - WNW 5 9 1012.3 - - - - - - - - -
24/12:00pm - WSW 6 10 1013.0 - - - - - - - - -
24/11:30am - WNW 5 9 1013.5 - - - - - - - - -
24/11:00am - WNW 7 11 1014.1 - - - - - - - - -
24/10:30am - NE 2 5 1014.3 - - - - - - - - -
24/10:00am - NE 3 4 1014.5 - - - - - - - - -
24/09:30am - NE 2 3 1014.7 - - - - - - - - -
24/09:00am - CALM 0 1 1014.7 - - - - - - - - -
24/08:30am - WSW 1 3 1014.6 - - - - - - - - -
24/08:00am - W 1 1 1014.1 - - - - - - - - -
24/07:30am - NNW 1 2 1014.0 - - - - - - - - -
24/07:00am - NNW 1 2 1013.8 - - - - - - - - -
24/06:30am - N 1 2 1013.4 - - - - - - - - -
24/06:00am - SW 2 2 1013.4 - - - - - - - - -
24/05:30am - N 2 3 1013.1 - - - - - - - - -
24/05:00am - CALM 0 1 1013.0 - - - - - - - - -
24/04:30am - SSW 1 1 1013.0 - - - - - - - - -
24/04:00am - SSW 2 2 1012.8 - - - - - - - - -
24/03:30am - NNE 2 3 1012.5 - - - - - - - - -
24/03:00am - N 1 1 1012.8 - - - - - - - - -
24/02:30am - SSW 1 3 1013.1 - - - - - - - - -
24/02:00am - SSW 1 2 1013.4 - - - - - - - - -
24/01:30am - NNW 1 2 1013.4 - - - - - - - - -
24/01:00am - N 2 4 1013.3 - - - - - - - - -
24/12:30am - N 3 4 1013.3 - - - - - - - - -
24/12:00am - N 4 6 1013.5 - - - - - - - - -
 
Date/Time
EST
Temp
°C
Wind Pressure Rain since
9am
mm
Weather Cloud Vis
km
Sea
Height
m
Swell
Dir  Spd
kts
Gust
kts
hPa Trend Height
m
Period
s
Dir
23/11:30pm - WSW 1 3 1014.0 - - - - - - - - -
23/11:00pm - N 3 5 1014.1 - - - - - - - - -
23/10:30pm - N 5 6 1013.9 - - - - - - - - -
23/10:00pm - N 4 7 1013.8 - - - - - - - - -
23/09:30pm - N 6 9 1013.8 - - - - - - - - -
23/09:00pm - NNE 8 11 1013.4 - - - - - - - - -
23/08:30pm - NNE 3 5 1014.0 - - - - - - - - -
23/08:00pm - NE 3 5 1014.2 - - - - - - - - -
23/07:30pm - ENE 3 5 1014.0 - - - - - - - - -
23/07:00pm - E 4 5 1013.5 - - - - - - - - -
23/06:30pm - E 5 7 1013.0 - - - - - - - - -
23/06:00pm - ENE 5 7 1012.6 - - - - - - - - -
23/05:30pm - ENE 6 8 1012.4 - - - - - - - - -
23/05:00pm - ENE 3 6 1011.9 - - - - - - - - -
23/04:30pm - ENE 4 6 1012.1 - - - - - - - - -
23/04:00pm - NE 2 6 1012.0 - - - - - - - - -
23/03:30pm - E 2 5 1012.1 - - - - - - - - -
23/03:00pm - SSW 3 6 1012.1 - - - - - - - - -
23/02:30pm - S 5 8 1012.5 - - - - - - - - -
23/02:00pm - S 4 7 1012.8 - - - - - - - - -
23/01:30pm - S 6 10 1013.3 - - - - - - - - -
23/01:00pm - S 7 10 1013.8 - - - - - - - - -
23/12:30pm - S 8 10 1014.3 - - - - - - - - -
23/12:00pm - S 6 8 1014.9 - - - - - - - - -
23/11:30am - S 6 8 1015.4 - - - - - - - - -
23/11:00am - S 5 7 1015.7 - - - - - - - - -
23/10:30am - S 3 5 1016.0 - - - - - - - - -
23/10:00am - SSE 3 4 1016.2 - - - - - - - - -
23/09:30am - SSE 2 3 1016.0 - - - - - - - - -

Other Formats:

Comma delimited format used in spreadsheet applications
http://www.bom.gov.au/fwo/IDQ60701/IDQ60701.95298.axf

JavaScript Object Notation format (JSON) in row-major order
http://www.bom.gov.au/fwo/IDQ60701/IDQ60701.95298.json